Time;durP1;ratioP1;P1;durP2;ratioP2;P2;SDS_P1;SDS_P2;PMS_P1;PMS_P2;Temp;Humidity;BMP_temperature;BMP_pressure;BME280_temperature;BME280_humidity;BME280_pressure;Samples;Min_cycle;Max_cycle;Signal;HPM_P1;HPM_P2
2021/08/16 00:01:02;;;;;;;6.10;5.03;;;22.60;91.50;;;;;;5047376;28;20475;-64
2021/08/16 00:03:28;;;;;;;8.47;5.43;;;22.60;91.50;;;;;;5047803;28;20521;-64
2021/08/16 00:05:55;;;;;;;6.17;5.57;;;22.60;91.60;;;;;;5054274;28;20529;-64
2021/08/16 00:08:22;;;;;;;6.20;5.37;;;22.60;91.60;;;;;;5053630;28;20980;-64
2021/08/16 00:10:48;;;;;;;5.50;5.00;;;22.60;91.60;;;;;;5054314;28;20467;-63
2021/08/16 00:13:16;;;;;;;5.17;4.67;;;22.50;91.60;;;;;;5053902;28;20521;-63
2021/08/16 00:15:43;;;;;;;6.03;5.43;;;22.50;91.40;;;;;;5053653;28;20463;-63
2021/08/16 00:18:09;;;;;;;10.83;8.20;;;22.50;91.30;;;;;;5053774;28;21011;-64
2021/08/16 00:20:36;;;;;;;6.67;5.20;;;22.50;91.30;;;;;;5053527;28;20471;-63
2021/08/16 00:23:03;;;;;;;5.20;4.70;;;22.50;91.30;;;;;;5053925;28;20984;-64
2021/08/16 00:25:30;;;;;;;4.20;3.90;;;22.50;91.20;;;;;;5053366;28;20501;-64
2021/08/16 00:27:56;;;;;;;5.30;4.80;;;22.50;91.20;;;;;;5053510;28;20537;-63
2021/08/16 00:30:24;;;;;;;4.73;4.30;;;22.50;91.20;;;;;;5053480;28;20467;-64
2021/08/16 00:32:51;;;;;;;4.83;4.43;;;22.50;91.10;;;;;;5053598;28;20471;-64
2021/08/16 00:35:18;;;;;;;6.17;5.10;;;22.50;91.10;;;;;;5053610;28;20528;-63
2021/08/16 00:37:46;;;;;;;4.70;4.27;;;22.50;91.10;;;;;;5053215;28;20471;-64
2021/08/16 00:40:14;;;;;;;5.87;3.93;;;22.50;91.10;;;;;;5053513;28;20505;-64
2021/08/16 00:42:41;;;;;;;4.60;4.20;;;22.50;91.10;;;;;;5053097;28;20471;-64
2021/08/16 00:45:09;;;;;;;4.20;3.80;;;22.40;91.00;;;;;;5053332;28;20471;-64
2021/08/16 00:47:39;;;;;;;5.87;4.53;;;22.40;90.90;;;;;;5050144;28;20782;-63
2021/08/16 00:50:06;;;;;;;4.40;4.00;;;22.50;90.90;;;;;;5053367;28;20908;-63
2021/08/16 00:52:33;;;;;;;4.63;3.70;;;22.40;90.90;;;;;;5052931;28;20525;-63
2021/08/16 00:55:00;;;;;;;3.50;3.20;;;22.40;90.90;;;;;;5053319;28;20463;-63
2021/08/16 00:57:29;;;;;;;4.50;4.10;;;22.40;90.80;;;;;;5052875;28;20467;-64
2021/08/16 00:59:55;;;;;;;6.23;5.10;;;22.40;90.80;;;;;;5053189;28;20464;-63
2021/08/16 01:02:22;;;;;;;4.07;3.77;;;22.40;90.80;;;;;;5052943;28;20848;-64
2021/08/16 01:04:50;;;;;;;6.60;3.80;;;22.40;90.80;;;;;;5052908;28;20467;-63
2021/08/16 01:07:16;;;;;;;5.50;3.67;;;22.40;90.80;;;;;;5051236;28;20787;-63
2021/08/16 01:09:43;;;;;;;5.60;3.73;;;22.40;90.80;;;;;;5052490;28;20530;-64
2021/08/16 01:12:10;;;;;;;3.77;3.47;;;22.40;90.80;;;;;;5050271;28;21008;-64
2021/08/16 01:14:36;;;;;;;3.77;3.47;;;22.40;90.90;;;;;;5043745;28;20953;-63
2021/08/16 01:17:03;;;;;;;5.17;3.90;;;22.40;90.90;;;;;;5052902;28;20471;-63
2021/08/16 01:19:30;;;;;;;4.23;3.70;;;22.40;90.90;;;;;;5052583;28;20475;-63
2021/08/16 01:21:58;;;;;;;4.60;4.20;;;22.40;90.80;;;;;;5052892;28;20844;-63
2021/08/16 01:24:25;;;;;;;4.40;4.00;;;22.40;90.90;;;;;;5046439;28;20962;-63
2021/08/16 01:26:53;;;;;;;5.97;4.93;;;22.30;90.80;;;;;;5051715;28;21570;-63
2021/08/16 01:29:22;;;;;;;6.63;4.73;;;22.40;90.80;;;;;;5052458;28;20483;-63
2021/08/16 01:31:50;;;;;;;8.07;5.10;;;22.40;90.80;;;;;;5052255;28;20459;-63
2021/08/16 01:34:16;;;;;;;5.60;4.47;;;22.30;90.80;;;;;;5052851;28;21023;-63
2021/08/16 01:36:44;;;;;;;8.00;5.17;;;22.30;91.20;;;;;;5038756;28;20848;-64
2021/08/16 01:39:11;;;;;;;5.40;4.90;;;22.30;90.70;;;;;;5051346;28;20475;-63
2021/08/16 01:41:38;;;;;;;6.67;5.13;;;22.30;90.70;;;;;;5052166;28;20529;-64
2021/08/16 01:44:06;;;;;;;5.70;4.33;;;22.30;90.70;;;;;;5052356;28;20540;-63
2021/08/16 01:46:33;;;;;;;7.23;5.47;;;22.30;90.70;;;;;;5051977;28;20852;-64
2021/08/16 01:49:00;;;;;;;8.47;6.60;;;22.30;90.70;;;;;;5052412;28;20600;-64
2021/08/16 01:51:26;;;;;;;6.63;5.93;;;22.20;90.70;;;;;;5052442;28;20537;-64
2021/08/16 01:53:53;;;;;;;9.73;6.70;;;22.20;90.80;;;;;;5052084;28;20852;-63
2021/08/16 01:56:20;;;;;;;7.60;6.07;;;22.30;90.90;;;;;;5052559;28;20475;-63
2021/08/16 01:58:47;;;;;;;5.70;5.10;;;22.20;91.00;;;;;;5051802;28;20467;-64
2021/08/16 02:01:15;;;;;;;5.70;4.80;;;22.20;90.90;;;;;;5037783;28;20479;-63
2021/08/16 02:03:41;;;;;;;5.53;5.00;;;22.20;90.90;;;;;;5051649;28;20467;-64
2021/08/16 02:06:08;;;;;;;9.40;5.47;;;22.20;90.90;;;;;;5052122;28;20501;-64
2021/08/16 02:08:35;;;;;;;6.83;5.30;;;22.20;91.00;;;;;;5051809;28;20968;-64
2021/08/16 02:11:01;;;;;;;6.47;5.70;;;22.20;91.10;;;;;;5051901;28;20475;-63
2021/08/16 02:13:28;;;;;;;7.07;5.40;;;22.20;91.10;;;;;;5056382;28;20463;-64
2021/08/16 02:15:54;;;;;;;5.17;4.67;;;22.10;91.10;;;;;;5051994;28;20502;-63
2021/08/16 02:18:22;;;;;;;6.50;4.60;;;22.10;91.00;;;;;;5052185;28;20981;-64
2021/08/16 02:20:49;;;;;;;3.90;3.53;;;22.10;90.90;;;;;;5041002;28;20566;-64
2021/08/16 02:23:16;;;;;;;4.50;4.10;;;22.10;90.90;;;;;;5050552;28;20984;-63
2021/08/16 02:25:42;;;;;;;4.93;4.43;;;22.10;90.90;;;;;;5049975;28;20520;-63
2021/08/16 02:28:09;;;;;;;5.97;4.70;;;22.00;90.90;;;;;;5054208;28;20540;-63
2021/08/16 02:30:35;;;;;;;5.20;4.70;;;22.00;90.90;;;;;;5053797;28;20467;-63
2021/08/16 02:33:02;;;;;;;4.70;4.30;;;22.00;90.90;;;;;;5054146;28;20536;-64
2021/08/16 02:35:30;;;;;;;14.80;12.43;;;22.00;90.80;;;;;;5054089;28;20463;-63
2021/08/16 02:37:57;;;;;;;8.60;7.70;;;22.00;90.90;;;;;;5053898;28;20855;-64
2021/08/16 02:40:23;;;;;;;8.57;7.57;;;22.00;91.00;;;;;;5055779;28;20467;-63
2021/08/16 02:42:50;;;;;;;7.43;5.53;;;21.90;91.00;;;;;;5055447;28;20532;-63
2021/08/16 02:45:16;;;;;;;6.43;5.03;;;21.90;91.10;;;;;;5055437;28;20471;-63
2021/08/16 02:47:44;;;;;;;6.40;4.47;;;21.90;91.10;;;;;;5055211;28;20505;-63
2021/08/16 02:50:12;;;;;;;5.10;4.60;;;21.90;91.10;;;;;;5048873;28;20549;-64
2021/08/16 02:52:39;;;;;;;5.90;4.70;;;21.90;91.10;;;;;;5055264;28;20507;-63
2021/08/16 02:55:08;;;;;;;6.50;4.60;;;21.80;91.10;;;;;;5055476;28;20463;-64
2021/08/16 02:57:34;;;;;;;4.90;4.50;;;21.80;91.20;;;;;;5055348;28;20471;-63
2021/08/16 03:00:01;;;;;;;9.63;8.00;;;21.80;91.20;;;;;;5055213;28;20540;-64
2021/08/16 03:02:28;;;;;;;9.57;8.47;;;21.80;91.30;;;;;;5041825;28;20526;-63
2021/08/16 03:04:54;;;;;;;6.00;4.80;;;21.70;91.30;;;;;;5054995;28;20877;-63
2021/08/16 03:07:21;;;;;;;7.93;5.00;;;21.70;91.20;;;;;;5055316;28;20471;-63
2021/08/16 03:09:49;;;;;;;15.40;11.60;;;21.70;91.30;;;;;;5054745;28;20890;-64
2021/08/16 03:12:17;;;;;;;11.63;8.60;;;21.70;91.40;;;;;;5055277;28;20475;-64
2021/08/16 03:14:43;;;;;;;7.80;7.00;;;21.70;91.40;;;;;;5054725;28;20467;-63
2021/08/16 03:17:10;;;;;;;6.90;4.67;;;21.70;91.50;;;;;;5055210;28;20536;-64
2021/08/16 03:19:38;;;;;;;4.50;4.10;;;21.60;91.40;;;;;;5054650;28;20965;-63
2021/08/16 03:22:05;;;;;;;4.37;3.97;;;21.60;91.50;;;;;;5054993;28;20474;-63
2021/08/16 03:24:32;;;;;;;7.40;4.30;;;21.60;91.50;;;;;;5055061;28;20467;-63
2021/08/16 03:27:01;;;;;;;4.73;3.77;;;21.60;91.70;;;;;;5054367;28;20468;-63
2021/08/16 03:29:27;;;;;;;4.50;4.10;;;21.50;91.70;;;;;;5054770;28;20467;-63
2021/08/16 03:31:54;;;;;;;4.00;3.70;;;21.50;91.60;;;;;;5054416;28;20467;-63
2021/08/16 03:34:21;;;;;;;7.47;5.30;;;21.50;91.70;;;;;;5054928;28;20471;-63
2021/08/16 03:36:47;;;;;;;7.07;6.37;;;21.50;91.60;;;;;;5053861;28;20856;-63
2021/08/16 03:39:14;;;;;;;15.30;12.40;;;21.50;91.50;;;;;;5054752;28;20475;-63
2021/08/16 03:41:41;;;;;;;6.77;5.50;;;21.50;91.50;;;;;;5054184;28;20860;-63
2021/08/16 03:44:08;;;;;;;6.60;5.63;;;21.50;91.60;;;;;;5054486;28;20537;-63
2021/08/16 03:46:35;;;;;;;4.50;4.10;;;21.50;91.60;;;;;;5054589;28;20471;-64
2021/08/16 03:49:02;;;;;;;5.83;4.50;;;21.50;91.60;;;;;;5052518;28;20852;-63
2021/08/16 03:51:28;;;;;;;4.67;4.00;;;21.50;91.70;;;;;;5050275;28;20479;-63
2021/08/16 03:53:55;;;;;;;5.30;4.77;;;21.50;91.70;;;;;;5053749;28;20937;-64
2021/08/16 03:56:21;;;;;;;8.63;6.07;;;21.50;91.70;;;;;;5054276;28;20463;-63
2021/08/16 03:58:48;;;;;;;5.83;5.23;;;21.50;91.70;;;;;;5053982;28;20471;-63
2021/08/16 04:01:16;;;;;;;5.43;4.80;;;21.50;91.60;;;;;;5049761;28;20473;-63
2021/08/16 04:03:43;;;;;;;7.30;4.90;;;21.50;91.60;;;;;;5045184;28;21180;-63
2021/08/16 04:06:10;;;;;;;4.70;4.30;;;21.50;91.50;;;;;;5054249;28;20459;-63
2021/08/16 04:08:39;;;;;;;7.40;5.43;;;21.50;91.50;;;;;;5054144;28;20530;-63
2021/08/16 04:11:07;;;;;;;12.80;9.33;;;21.50;91.50;;;;;;5053825;28;21820;-63
2021/08/16 04:13:33;;;;;;;5.40;4.03;;;21.50;91.60;;;;;;5054186;28;20471;-63
2021/08/16 04:16:00;;;;;;;6.13;5.50;;;21.60;91.50;;;;;;5053645;28;20475;-63
2021/08/16 04:18:28;;;;;;;8.07;6.77;;;21.60;91.40;;;;;;5053919;28;20471;-63
2021/08/16 04:20:56;;;;;;;12.03;7.80;;;21.60;91.40;;;;;;5053549;28;20471;-63
2021/08/16 04:23:22;;;;;;;15.37;10.80;;;21.70;91.40;;;;;;5053864;28;20463;-63
2021/08/16 04:25:49;;;;;;;10.50;9.07;;;21.70;91.50;;;;;;5053273;28;20520;-63
2021/08/16 04:28:16;;;;;;;7.37;5.33;;;21.70;91.40;;;;;;5045181;28;20958;-63
2021/08/16 04:30:42;;;;;;;7.07;4.70;;;21.80;91.40;;;;;;5052657;28;20533;-63
2021/08/16 04:33:09;;;;;;;5.90;4.90;;;21.80;91.40;;;;;;5053592;28;21251;-63
2021/08/16 04:35:37;;;;;;;5.90;4.27;;;21.80;91.50;;;;;;5053715;28;20479;-63
2021/08/16 04:38:04;;;;;;;8.83;3.87;;;21.80;91.60;;;;;;5053133;28;20478;-63
2021/08/16 04:40:30;;;;;;;4.20;3.80;;;21.70;91.60;;;;;;5053574;28;20537;-63
2021/08/16 04:42:57;;;;;;;6.27;5.10;;;21.70;91.60;;;;;;5052968;28;20502;-63
2021/08/16 04:45:23;;;;;;;9.63;8.67;;;21.80;91.60;;;;;;5053196;28;20467;-64
2021/08/16 04:47:50;;;;;;;7.70;6.27;;;21.80;91.70;;;;;;5053121;28;20471;-64
2021/08/16 04:50:17;;;;;;;5.60;4.20;;;21.80;91.70;;;;;;5052371;28;20467;-64
2021/08/16 04:52:46;;;;;;;3.57;3.23;;;21.80;91.70;;;;;;5053358;28;20533;-64
2021/08/16 04:55:13;;;;;;;4.90;4.27;;;21.80;91.70;;;;;;5053141;28;21287;-63
2021/08/16 04:57:40;;;;;;;6.53;4.60;;;21.80;91.70;;;;;;5053124;28;20467;-64
2021/08/16 05:00:09;;;;;;;9.00;6.33;;;21.90;91.80;;;;;;5039388;28;20517;-64
2021/08/16 05:02:36;;;;;;;6.07;5.47;;;21.90;91.80;;;;;;5053106;28;20471;-64
2021/08/16 05:05:08;;;;;;;5.43;4.83;;;21.80;91.80;;;;;;5052205;28;20510;-64
2021/08/16 05:07:35;;;;;;;6.27;5.77;;;21.80;91.80;;;;;;5053026;28;21028;-64
2021/08/16 05:10:06;;;;;;;5.17;4.30;;;21.80;91.90;;;;;;5052718;28;20471;-64
2021/08/16 05:12:32;;;;;;;7.23;6.07;;;21.80;92.00;;;;;;5053067;28;20852;-64
2021/08/16 05:14:59;;;;;;;6.73;6.13;;;21.80;92.10;;;;;;5052430;28;20467;-64
2021/08/16 05:17:26;;;;;;;7.23;6.50;;;21.80;92.10;;;;;;5053045;28;20471;-64
2021/08/16 05:19:52;;;;;;;6.73;6.03;;;21.80;92.20;;;;;;5052696;28;20529;-63
2021/08/16 05:22:19;;;;;;;6.47;5.97;;;21.80;92.30;;;;;;5053033;28;20459;-64
2021/08/16 05:24:46;;;;;;;5.20;4.70;;;21.90;92.30;;;;;;5053077;28;20471;-63
2021/08/16 05:27:14;;;;;;;8.00;6.80;;;21.90;92.40;;;;;;5052486;28;20951;-64
2021/08/16 05:29:40;;;;;;;7.47;5.80;;;21.90;92.40;;;;;;5052594;28;20553;-64
2021/08/16 05:32:07;;;;;;;4.63;3.93;;;21.90;92.50;;;;;;5052451;28;20983;-64
2021/08/16 05:34:34;;;;;;;4.80;4.40;;;21.90;92.50;;;;;;5052822;28;20841;-64
2021/08/16 05:37:01;;;;;;;6.80;4.47;;;21.90;92.50;;;;;;5052461;28;20459;-64
2021/08/16 05:39:27;;;;;;;4.47;4.07;;;21.90;92.60;;;;;;5052764;28;20463;-64
2021/08/16 05:41:54;;;;;;;4.80;4.30;;;22.00;92.60;;;;;;5052312;28;20854;-64
2021/08/16 05:44:22;;;;;;;5.23;4.73;;;22.00;92.70;;;;;;5052633;28;20467;-64
2021/08/16 05:46:48;;;;;;;6.13;4.20;;;22.00;92.80;;;;;;5052640;28;20470;-62
2021/08/16 05:49:15;;;;;;;6.30;4.63;;;22.00;92.80;;;;;;5052057;28;20475;-64
2021/08/16 05:51:42;;;;;;;4.43;3.63;;;22.00;92.80;;;;;;5052795;28;20529;-63
2021/08/16 05:54:08;;;;;;;5.03;4.47;;;22.00;92.90;;;;;;5052124;28;20525;-63
2021/08/16 05:56:35;;;;;;;9.23;6.57;;;22.10;93.00;;;;;;5052678;28;20513;-63
2021/08/16 05:59:01;;;;;;;12.90;8.67;;;22.10;92.90;;;;;;5052179;28;20513;-63
2021/08/16 06:01:33;;;;;;;14.90;8.10;;;22.20;92.70;;;;;;5055607;28;20852;-64
2021/08/16 06:04:00;;;;;;;10.03;7.13;;;22.30;92.60;;;;;;5056198;28;20498;-64
2021/08/16 06:06:26;;;;;;;12.07;7.97;;;22.40;92.40;;;;;;5056693;28;20494;-63
2021/08/16 06:08:53;;;;;;;9.43;6.60;;;22.40;92.40;;;;;;5056184;28;20466;-63
2021/08/16 06:11:20;;;;;;;6.93;5.20;;;22.50;92.30;;;;;;5056510;28;20532;-63
2021/08/16 06:13:46;;;;;;;6.43;5.43;;;22.60;92.30;;;;;;5056527;28;21022;-63
2021/08/16 06:16:13;;;;;;;16.00;9.77;;;22.60;92.20;;;;;;5055672;28;20547;-64
2021/08/16 06:18:41;;;;;;;8.63;4.80;;;22.70;92.30;;;;;;5056436;28;20536;-63
2021/08/16 06:21:07;;;;;;;6.20;5.57;;;22.70;92.40;;;;;;5055748;28;20471;-64
2021/08/16 06:23:34;;;;;;;5.83;5.20;;;22.70;92.30;;;;;;5043260;28;20529;-63
2021/08/16 06:26:01;;;;;;;5.93;5.10;;;22.80;92.30;;;;;;5055421;28;20467;-63
2021/08/16 06:28:27;;;;;;;10.10;6.83;;;22.80;92.30;;;;;;5056032;28;20462;-63
2021/08/16 06:30:54;;;;;;;6.77;5.73;;;22.90;92.20;;;;;;5055862;28;20521;-63
2021/08/16 06:33:20;;;;;;;6.33;5.73;;;22.90;92.10;;;;;;5056114;28;20516;-63
2021/08/16 06:35:49;;;;;;;6.63;5.70;;;23.00;92.00;;;;;;5056117;28;21171;-63
2021/08/16 06:38:22;;;;;;;7.40;5.97;;;23.00;91.90;;;;;;5055389;28;20458;-63
2021/08/16 06:40:49;;;;;;;6.40;5.10;;;23.00;92.00;;;;;;5056085;28;20597;-63
2021/08/16 06:43:16;;;;;;;6.23;5.13;;;23.10;92.10;;;;;;5055366;28;20541;-62
2021/08/16 06:45:43;;;;;;;6.87;6.03;;;23.10;92.10;;;;;;5055790;28;20525;-63
2021/08/16 06:48:11;;;;;;;7.17;4.50;;;23.20;92.20;;;;;;5055370;28;20474;-63
2021/08/16 06:50:38;;;;;;;5.90;4.67;;;23.20;92.10;;;;;;5055799;28;20471;-63
2021/08/16 06:53:06;;;;;;;7.07;4.53;;;23.30;92.10;;;;;;5055448;28;20463;-64
2021/08/16 06:55:32;;;;;;;4.73;4.00;;;23.30;92.10;;;;;;5055836;28;20459;-64
2021/08/16 06:57:59;;;;;;;6.73;4.03;;;23.30;92.20;;;;;;5054674;28;20479;-64
2021/08/16 07:00:26;;;;;;;7.20;6.07;;;23.30;92.20;;;;;;5054541;28;20607;-64
2021/08/16 07:02:52;;;;;;;5.40;4.90;;;23.30;92.30;;;;;;5055627;28;20497;-64
2021/08/16 07:05:19;;;;;;;5.13;3.93;;;23.40;92.30;;;;;;5055222;28;20513;-64
2021/08/16 07:07:47;;;;;;;6.10;5.13;;;23.40;92.40;;;;;;5055565;28;20805;-63
2021/08/16 07:10:15;;;;;;;4.53;4.10;;;23.40;92.50;;;;;;5054835;28;20471;-64
2021/08/16 07:12:41;;;;;;;5.90;4.27;;;23.50;92.60;;;;;;5054644;28;20474;-63
2021/08/16 07:15:08;;;;;;;5.30;4.03;;;23.50;92.60;;;;;;5055019;28;20958;-63
2021/08/16 07:17:35;;;;;;;7.33;4.53;;;23.50;92.60;;;;;;5055336;28;20848;-63
2021/08/16 07:20:01;;;;;;;6.67;4.40;;;23.50;92.60;;;;;;5054691;28;20475;-63
2021/08/16 07:22:28;;;;;;;4.47;4.13;;;23.60;92.80;;;;;;5055300;28;20841;-63
2021/08/16 07:24:55;;;;;;;7.80;6.67;;;23.60;93.00;;;;;;5055291;28;20540;-64
2021/08/16 07:27:23;;;;;;;5.20;4.70;;;23.70;93.00;;;;;;5054862;28;20853;-64
2021/08/16 07:29:50;;;;;;;5.93;4.40;;;23.70;93.10;;;;;;5055069;28;20525;-63
2021/08/16 07:32:16;;;;;;;5.57;4.53;;;23.80;93.20;;;;;;5054510;28;20596;-64
2021/08/16 07:34:43;;;;;;;6.90;6.20;;;23.90;93.20;;;;;;5055131;28;20467;-63
2021/08/16 07:37:12;;;;;;;5.80;5.20;;;24.00;93.00;;;;;;5054550;28;20467;-64
2021/08/16 07:39:38;;;;;;;5.77;5.27;;;24.00;92.90;;;;;;5054894;28;20459;-64
2021/08/16 07:42:05;;;;;;;9.10;5.80;;;24.00;92.90;;;;;;5054340;28;21008;-63
2021/08/16 07:44:33;;;;;;;6.63;4.90;;;24.10;92.90;;;;;;5054776;28;20467;-64
2021/08/16 07:47:00;;;;;;;4.70;4.27;;;24.10;92.70;;;;;;5054830;28;20475;-64
2021/08/16 07:49:30;;;;;;;6.13;4.40;;;24.10;92.80;;;;;;5054414;28;20466;-64
2021/08/16 07:51:56;;;;;;;8.10;4.73;;;24.20;92.90;;;;;;5054801;28;20538;-63
2021/08/16 07:54:23;;;;;;;8.03;5.40;;;24.20;92.70;;;;;;5054129;28;20471;-64
2021/08/16 07:56:50;;;;;;;7.63;4.37;;;24.30;92.60;;;;;;5054809;28;20467;-64
2021/08/16 07:59:17;;;;;;;4.40;4.00;;;24.30;92.50;;;;;;5054096;28;20506;-64
2021/08/16 08:01:45;;;;;;;5.03;4.60;;;24.40;92.60;;;;;;5054510;28;20470;-64
2021/08/16 08:04:14;;;;;;;6.27;4.83;;;24.50;92.60;;;;;;5054122;28;20471;-63
2021/08/16 08:06:40;;;;;;;5.40;4.50;;;24.50;92.40;;;;;;5054590;28;20471;-63
2021/08/16 08:09:07;;;;;;;5.80;4.17;;;24.60;92.40;;;;;;5053795;28;20965;-63
2021/08/16 08:11:34;;;;;;;7.43;4.63;;;24.60;92.30;;;;;;5054452;28;20489;-64
2021/08/16 08:14:01;;;;;;;7.67;5.53;;;24.60;92.20;;;;;;5054213;28;20471;-63
2021/08/16 08:16:27;;;;;;;5.43;4.93;;;24.70;91.90;;;;;;5053747;28;20848;-63
2021/08/16 08:18:55;;;;;;;8.20;6.30;;;24.70;91.40;;;;;;5054146;28;20532;-63
2021/08/16 08:21:22;;;;;;;6.80;6.10;;;24.70;91.30;;;;;;5053684;28;20471;-64
2021/08/16 08:23:48;;;;;;;7.53;6.17;;;24.80;91.30;;;;;;5053135;28;20857;-64
2021/08/16 08:26:15;;;;;;;7.17;6.50;;;24.80;91.30;;;;;;5053814;28;20467;-64
2021/08/16 08:28:41;;;;;;;12.20;6.07;;;24.80;91.20;;;;;;5043973;28;20472;-64
2021/08/16 08:31:08;;;;;;;7.03;6.33;;;24.70;90.40;;;;;;5033621;28;20472;-64
2021/08/16 08:33:37;;;;;;;7.90;5.27;;;24.70;90.60;;;;;;5034046;28;20529;-65
2021/08/16 08:36:05;;;;;;;8.27;6.30;;;24.70;90.10;;;;;;5033943;28;20474;-62
2021/08/16 08:38:32;;;;;;;5.90;5.40;;;24.60;90.00;;;;;;5033527;28;20542;-63
2021/08/16 08:41:00;;;;;;;5.90;5.10;;;24.70;90.00;;;;;;5033961;28;20472;-63
2021/08/16 08:43:28;;;;;;;9.90;6.00;;;24.70;90.00;;;;;;5033093;28;21081;-64
2021/08/16 08:45:56;;;;;;;7.30;6.47;;;24.80;89.80;;;;;;5033760;28;20464;-64
2021/08/16 08:48:22;;;;;;;13.10;7.57;;;24.90;89.30;;;;;;5033213;28;20486;-63
2021/08/16 08:50:50;;;;;;;7.37;6.73;;;24.90;88.70;;;;;;5033633;28;21063;-63
2021/08/16 08:53:18;;;;;;;9.20;8.37;;;25.00;87.70;;;;;;5033249;28;20478;-64
2021/08/16 08:55:45;;;;;;;7.20;6.50;;;25.10;86.90;;;;;;5033634;28;20460;-64
2021/08/16 08:58:13;;;;;;;8.73;7.83;;;25.10;86.00;;;;;;5032847;28;20478;-64
2021/08/16 09:00:40;;;;;;;8.47;7.70;;;25.20;85.50;;;;;;5033538;28;20472;-63
2021/08/16 09:03:08;;;;;;;8.53;7.83;;;25.20;84.50;;;;;;5033285;28;20471;-63
2021/08/16 09:05:48;;;;;;;8.43;7.60;;;25.20;84.20;;;;;;5033124;28;20522;-63
2021/08/16 09:08:27;;;;;;;9.77;8.77;;;25.20;83.90;;;;;;5032708;28;20494;-64
2021/08/16 09:11:05;;;;;;;9.07;8.27;;;25.30;83.70;;;;;;5033061;28;20471;-63
2021/08/16 09:13:31;;;;;;;8.20;7.47;;;25.30;83.70;;;;;;5032299;28;20474;-64
2021/08/16 09:16:08;;;;;;;12.13;7.53;;;25.30;83.30;;;;;;5032928;28;20962;-64
2021/08/16 09:18:35;;;;;;;17.03;15.63;;;25.30;83.20;;;;;;5032515;28;20529;-63
2021/08/16 09:21:01;;;;;;;22.27;20.27;;;25.40;84.50;;;;;;5033270;28;20545;-64
2021/08/16 09:23:40;;;;;;;14.93;13.67;;;25.40;84.70;;;;;;5032478;28;20471;-63
2021/08/16 09:26:10;;;;;;;12.77;11.53;;;25.30;83.40;;;;;;5032966;28;20935;-63
2021/08/16 09:28:37;;;;;;;10.30;9.20;;;25.30;82.00;;;;;;5032479;28;20487;-65
2021/08/16 09:31:14;;;;;;;17.90;16.30;;;25.30;81.10;;;;;;5032970;28;20534;-65
2021/08/16 09:33:52;;;;;;;11.13;10.03;;;25.30;81.50;;;;;;5032856;28;20460;-64
2021/08/16 09:36:19;;;;;;;7.33;6.70;;;25.20;81.30;;;;;;5032204;28;20463;-65
2021/08/16 09:38:47;;;;;;;8.20;7.40;;;25.20;81.30;;;;;;5032860;28;20530;-64
2021/08/16 09:41:22;;;;;;;6.43;5.13;;;25.10;81.50;;;;;;5032959;28;20522;-65
2021/08/16 09:43:49;;;;;;;9.87;5.93;;;25.00;81.50;;;;;;5032476;28;20521;-64
2021/08/16 09:46:18;;;;;;;5.90;5.40;;;25.00;81.70;;;;;;5032706;28;20468;-64
2021/08/16 09:48:56;;;;;;;6.43;5.90;;;25.00;81.90;;;;;;5032475;28;20638;-64
2021/08/16 09:51:23;;;;;;;9.67;8.57;;;25.00;82.20;;;;;;5032753;28;20472;-64
2021/08/16 09:53:52;;;;;;;5.50;5.00;;;25.10;83.30;;;;;;5032573;28;20464;-63
2021/08/16 09:56:20;;;;;;;7.60;6.87;;;25.00;82.50;;;;;;5032752;28;20533;-64
2021/08/16 09:58:47;;;;;;;12.07;10.90;;;25.00;82.60;;;;;;5032170;28;20461;-63
2021/08/16 10:01:14;;;;;;;5.73;5.07;;;25.00;83.10;;;;;;5032635;28;20468;-64
2021/08/16 10:03:42;;;;;;;8.83;7.10;;;25.00;81.20;;;;;;5032276;28;20861;-63
2021/08/16 10:06:09;;;;;;;8.30;7.50;;;25.00;81.60;;;;;;5032748;28;20472;-63
2021/08/16 10:08:41;;;;;;;10.43;9.43;;;25.10;81.50;;;;;;5032096;28;20464;-63
2021/08/16 10:11:12;;;;;;;23.50;21.50;;;25.20;81.90;;;;;;5032472;28;20538;-63
2021/08/16 10:13:41;;;;;;;11.43;10.33;;;25.30;84.00;;;;;;5032148;28;21160;-64
2021/08/16 10:16:13;;;;;;;10.73;9.80;;;25.40;81.70;;;;;;5032592;28;20468;-64
2021/08/16 10:18:44;;;;;;;7.63;5.80;;;25.40;81.60;;;;;;5031985;28;20533;-64
2021/08/16 10:21:11;;;;;;;14.07;12.60;;;25.50;79.50;;;;;;5032432;28;20456;-65
2021/08/16 10:23:48;;;;;;;6.97;6.27;;;25.50;79.80;;;;;;5032054;28;20464;-64
2021/08/16 10:26:30;;;;;;;21.60;19.70;;;25.50;78.80;;;;;;5032314;28;20980;-64
2021/08/16 10:29:00;;;;;;;18.13;16.50;;;25.40;84.50;;;;;;5031956;28;20523;-64
2021/08/16 10:31:29;;;;;;;13.10;12.00;;;25.40;84.90;;;;;;5032322;28;20476;-64
2021/08/16 10:33:55;;;;;;;8.50;7.50;;;25.40;83.50;;;;;;5032027;28;20472;-64
2021/08/16 10:36:23;;;;;;;5.30;4.77;;;25.40;81.60;;;;;;5032425;28;20526;-64
2021/08/16 10:38:51;;;;;;;5.40;4.90;;;25.40;78.00;;;;;;5031855;28;20471;-65
2021/08/16 10:41:30;;;;;;;9.10;8.30;;;25.40;78.60;;;;;;5032481;28;20464;-63
2021/08/16 10:43:58;;;;;;;6.90;6.20;;;25.50;78.60;;;;;;5031547;28;20467;-63
2021/08/16 10:46:26;;;;;;;9.27;8.53;;;25.50;77.60;;;;;;5032254;28;20958;-64
2021/08/16 10:49:03;;;;;;;6.20;5.60;;;25.50;77.20;;;;;;5035154;28;20498;-63
2021/08/16 10:51:42;;;;;;;8.73;6.90;;;25.50;76.00;;;;;;5035830;28;20538;-63
2021/08/16 10:54:09;;;;;;;9.00;8.20;;;25.50;76.00;;;;;;5035707;28;20952;-63
2021/08/16 10:56:37;;;;;;;14.57;13.07;;;25.50;77.00;;;;;;5035737;28;21023;-63
2021/08/16 10:59:04;;;;;;;7.30;6.67;;;25.50;78.40;;;;;;5035135;28;20468;-64
2021/08/16 11:01:33;;;;;;;8.90;8.00;;;25.50;76.90;;;;;;5035613;28;21005;-63
2021/08/16 11:04:01;;;;;;;11.53;10.53;;;25.60;76.30;;;;;;5035125;28;20463;-63
2021/08/16 11:06:28;;;;;;;14.67;13.40;;;25.50;76.30;;;;;;5035697;28;20534;-64
2021/08/16 11:08:58;;;;;;;11.23;10.33;;;25.50;77.50;;;;;;5034937;28;20817;-64
2021/08/16 11:11:25;;;;;;;9.50;8.70;;;25.50;78.00;;;;;;5034996;28;20647;-64
2021/08/16 11:14:05;;;;;;;15.83;14.37;;;25.50;76.00;;;;;;5035098;28;20475;-63
2021/08/16 11:16:32;;;;;;;8.17;7.47;;;25.50;77.70;;;;;;5035658;28;20468;-63
2021/08/16 11:18:58;;;;;;;16.03;14.53;;;25.60;75.60;;;;;;5034811;28;20472;-63
2021/08/16 11:21:29;;;;;;;11.17;10.37;;;25.60;76.80;;;;;;5035483;28;21001;-64
2021/08/16 11:23:57;;;;;;;15.37;14.00;;;25.60;76.40;;;;;;5034971;28;20545;-64
2021/08/16 11:26:24;;;;;;;13.87;12.50;;;25.60;78.20;;;;;;5035238;28;20460;-64
2021/08/16 11:28:51;;;;;;;26.67;24.43;;;25.70;76.60;;;;;;5034757;28;20850;-64
2021/08/16 11:31:23;;;;;;;8.07;7.37;;;25.80;79.80;;;;;;5035285;28;20845;-64
2021/08/16 11:33:50;;;;;;;12.47;11.20;;;25.80;75.80;;;;;;5034818;28;20474;-63
2021/08/16 11:36:17;;;;;;;10.07;9.10;;;25.80;75.60;;;;;;5035052;28;20468;-64
2021/08/16 11:38:44;;;;;;;16.13;14.63;;;25.80;75.40;;;;;;5035134;28;20468;-64
2021/08/16 11:41:13;;;;;;;25.43;23.20;;;25.80;76.70;;;;;;5034418;28;20468;-63
2021/08/16 11:43:40;;;;;;;11.57;10.43;;;25.80;78.50;;;;;;5034740;28;20484;-64
2021/08/16 11:46:13;;;;;;;17.93;16.30;;;25.90;75.30;;;;;;5034593;28;20472;-63
2021/08/16 11:48:44;;;;;;;8.37;7.47;;;25.90;75.70;;;;;;5034789;28;20499;-65
2021/08/16 11:51:11;;;;;;;6.70;6.10;;;25.90;74.40;;;;;;5034327;28;20468;-63
2021/08/16 11:53:42;;;;;;;10.27;9.13;;;25.90;73.90;;;;;;5034871;28;20482;-64
2021/08/16 11:56:09;;;;;;;6.20;3.90;;;25.90;74.20;;;;;;5034258;28;20861;-64
2021/08/16 11:58:37;;;;;;;14.57;7.00;;;25.90;74.50;;;;;;5034265;28;20865;-64
2021/08/16 12:01:04;;;;;;;15.10;13.77;;;25.90;74.80;;;;;;5034274;28;20853;-64
2021/08/16 12:03:32;;;;;;;9.47;8.40;;;25.90;77.70;;;;;;5034479;28;20464;-63
2021/08/16 12:06:00;;;;;;;9.73;5.40;;;25.90;75.20;;;;;;5034029;28;20546;-64
2021/08/16 12:08:27;;;;;;;4.77;4.27;;;25.90;75.00;;;;;;5034509;28;20468;-64
2021/08/16 12:10:54;;;;;;;24.93;22.83;;;25.90;73.30;;;;;;5033825;28;20856;-64
2021/08/16 12:13:23;;;;;;;23.73;21.73;;;26.00;81.20;;;;;;5034315;28;20538;-65
2021/08/16 12:15:52;;;;;;;9.93;9.03;;;25.90;83.90;;;;;;5033940;28;20474;-63
2021/08/16 12:18:25;;;;;;;9.20;6.83;;;25.90;77.80;;;;;;5034191;28;20468;-63
2021/08/16 12:20:52;;;;;;;7.40;6.70;;;26.00;77.10;;;;;;5033889;28;20864;-63
2021/08/16 12:23:28;;;;;;;4.63;4.23;;;26.00;76.40;;;;;;5034138;28;20464;-64
2021/08/16 12:25:56;;;;;;;6.77;6.17;;;26.10;74.80;;;;;;5033746;28;20474;-63
2021/08/16 12:28:23;;;;;;;8.50;7.40;;;26.10;76.20;;;;;;5033911;28;20532;-63
2021/08/16 12:30:50;;;;;;;5.70;5.20;;;26.20;76.90;;;;;;5033978;28;20962;-64
2021/08/16 12:33:18;;;;;;;5.37;4.93;;;26.20;76.30;;;;;;5033745;28;20965;-64
2021/08/16 12:35:56;;;;;;;3.50;3.20;;;26.30;76.80;;;;;;5033855;28;20479;-64
2021/08/16 12:38:28;;;;;;;4.80;4.40;;;26.20;73.90;;;;;;5033743;28;21045;-64
2021/08/16 12:41:03;;;;;;;4.30;3.90;;;26.30;75.00;;;;;;5033933;28;20538;-64
2021/08/16 12:43:40;;;;;;;5.57;3.93;;;26.20;74.10;;;;;;5033410;28;20456;-64
2021/08/16 12:46:06;;;;;;;5.57;4.00;;;26.20;74.20;;;;;;5033289;28;20475;-64